createdAt,value
2023-04-27T00:04:59.826Z,4.9
2023-04-27T00:09:59.562Z,4.8
2023-04-27T00:14:59.776Z,4.8
2023-04-27T00:20:00.406Z,4.7
2023-04-27T00:24:59.806Z,4.7
2023-04-27T00:29:59.557Z,4.7
2023-04-27T00:34:59.681Z,4.6
2023-04-27T00:39:59.702Z,4.5
2023-04-27T00:44:59.937Z,4.5
2023-04-27T00:49:59.764Z,4.4
2023-04-27T00:54:59.505Z,4.4
2023-04-27T01:00:00.380Z,4.4
2023-04-27T01:04:59.873Z,4.3
2023-04-27T01:09:59.922Z,4.2
2023-04-27T01:14:59.852Z,4.1
2023-04-27T01:19:59.683Z,4.1
2023-04-27T01:24:59.588Z,4.1
2023-04-27T01:29:59.775Z,4.2
2023-04-27T01:34:59.831Z,4.1
2023-04-27T01:39:59.745Z,4.1
2023-04-27T01:44:59.745Z,4.1
2023-04-27T01:49:59.915Z,4.1
2023-04-27T01:54:59.617Z,4.1
2023-04-27T01:59:59.421Z,4
2023-04-27T02:04:59.489Z,3.9
2023-04-27T02:09:59.374Z,3.8
2023-04-27T02:14:59.492Z,3.8
2023-04-27T02:19:59.517Z,3.9
2023-04-27T02:24:59.412Z,3.8
2023-04-27T02:30:02.672Z,3.8
2023-04-27T02:34:59.468Z,3.6
2023-04-27T02:39:59.998Z,3.5
2023-04-27T02:44:59.607Z,3.7
2023-04-27T02:49:59.384Z,3.9
2023-04-27T02:54:59.342Z,3.7
2023-04-27T02:59:59.731Z,3.6
2023-04-27T03:04:59.588Z,3.8
2023-04-27T03:09:59.122Z,3.7
2023-04-27T03:14:59.442Z,3.7
2023-04-27T03:19:59.370Z,3.7
2023-04-27T03:24:59.043Z,3.8
2023-04-27T03:29:59.448Z,4.1
2023-04-27T03:34:59.454Z,3.7
2023-04-27T03:39:59.416Z,3.9
2023-04-27T03:44:59.529Z,3.9
2023-04-27T03:49:59.387Z,4
2023-04-27T03:54:59.148Z,3.8
2023-04-27T03:59:59.464Z,3.5
2023-04-27T04:04:59.443Z,3.5
2023-04-27T04:09:59.501Z,3.4
2023-04-27T04:14:59.259Z,3.4
2023-04-27T04:19:59.334Z,3.4
2023-04-27T04:24:58.933Z,3.4
2023-04-27T04:29:59.240Z,3.5
2023-04-27T04:34:59.229Z,3.3
2023-04-27T04:39:58.933Z,3.2
2023-04-27T04:44:59.324Z,3.4
2023-04-27T04:49:58.993Z,3.6
2023-04-27T04:54:59.386Z,3.7
2023-04-27T04:59:58.953Z,3.8
2023-04-27T05:04:59.313Z,3.8
2023-04-27T05:09:59.127Z,3.9
2023-04-27T05:14:58.896Z,3.8
2023-04-27T05:19:59.271Z,3.8
2023-04-27T05:24:59.363Z,4.1
2023-04-27T05:29:59.085Z,4.2
2023-04-27T05:34:59.040Z,4.6
2023-04-27T05:39:59.321Z,4.3
2023-04-27T05:44:58.888Z,4.4
2023-04-27T05:49:59.250Z,4.7
2023-04-27T05:54:59.210Z,4.7
2023-04-27T05:59:59.199Z,4.9
2023-04-27T06:04:58.740Z,4.9
2023-04-27T06:09:58.944Z,4.8
2023-04-27T06:14:58.727Z,5.1
2023-04-27T06:19:59.156Z,5.2
2023-04-27T06:24:58.640Z,5.3
2023-04-27T06:29:58.731Z,5.6
2023-04-27T06:34:58.958Z,5.7
2023-04-27T06:39:59.056Z,5.8
2023-04-27T06:44:58.961Z,6.1
2023-04-27T06:49:58.860Z,6.4
2023-04-27T06:54:58.599Z,6.4
2023-04-27T06:59:59.068Z,6.5
2023-04-27T07:04:59.046Z,6.7
2023-04-27T07:09:58.862Z,6.8
2023-04-27T07:14:58.896Z,6.9
2023-04-27T07:19:58.835Z,7
2023-04-27T07:24:58.718Z,7.2
2023-04-27T07:29:59.031Z,7.3
2023-04-27T07:34:58.588Z,7.3
2023-04-27T07:39:58.729Z,7.5
2023-04-27T07:44:58.621Z,7.7
2023-04-27T07:49:58.866Z,7.8
2023-04-27T07:54:58.695Z,8.2
2023-04-27T07:59:58.717Z,8.6
2023-04-27T08:04:59.359Z,8.6
2023-04-27T08:09:58.430Z,8.7
2023-04-27T08:14:58.706Z,8.7
2023-04-27T08:19:58.870Z,8.8
2023-04-27T08:24:58.603Z,8.9
2023-04-27T08:29:58.706Z,8.9
2023-04-27T08:34:58.465Z,8.9
2023-04-27T08:39:58.680Z,8.9
2023-04-27T08:44:58.695Z,9
2023-04-27T08:49:58.799Z,9.1
2023-04-27T08:54:58.510Z,9.2
2023-04-27T08:59:59.001Z,9.4
2023-04-27T09:04:59.299Z,9.4
2023-04-27T09:09:58.280Z,9.5
2023-04-27T09:15:00.574Z,9.9
2023-04-27T09:19:58.497Z,9.4
2023-04-27T09:24:58.616Z,9.9
2023-04-27T09:29:58.410Z,9.9
2023-04-27T09:34:58.458Z,9.9
2023-04-27T09:39:58.440Z,9.9
2023-04-27T09:44:58.669Z,10.2
2023-04-27T09:50:00.649Z,10.5
2023-04-27T09:54:58.888Z,10.6
2023-04-27T09:59:58.460Z,10.5
2023-04-27T10:04:58.479Z,10.8
2023-04-27T10:10:00.401Z,10.6
2023-04-27T10:14:59.318Z,10.8
2023-04-27T10:19:59.050Z,11
2023-04-27T10:24:58.429Z,11
2023-04-27T10:30:07.732Z,11.5
2023-04-27T10:35:01.706Z,11.2
2023-04-27T10:40:03.756Z,11.1
2023-04-27T10:44:58.020Z,11.6
2023-04-27T10:49:59.136Z,11.7
2023-04-27T10:55:03.611Z,11.9
2023-04-27T10:59:58.428Z,12
2023-04-27T11:04:58.394Z,12.1
2023-04-27T11:09:58.309Z,12.2
2023-04-27T11:14:58.397Z,12.2
2023-04-27T11:19:58.251Z,12.6
2023-04-27T11:24:58.179Z,12.6
2023-04-27T11:29:58.472Z,12.9
2023-04-27T11:34:59.774Z,12.4
2023-04-27T11:39:59.447Z,12.8
2023-04-27T11:44:58.905Z,13.1
2023-04-27T11:49:59.088Z,13
2023-04-27T11:54:58.582Z,13.1
2023-04-27T12:00:00.573Z,12.9
2023-04-27T12:04:58.789Z,12.9
2023-04-27T12:09:59.549Z,13.2
2023-04-27T12:14:58.128Z,13.6
2023-04-27T12:19:57.968Z,13.3
2023-04-27T12:24:58.336Z,13.7
2023-04-27T12:29:58.462Z,13.4
2023-04-27T12:34:58.105Z,13.8
2023-04-27T12:39:58.061Z,14.5
2023-04-27T12:44:58.158Z,14.8
2023-04-27T12:49:58.074Z,14.3
2023-04-27T12:54:57.731Z,14.1
2023-04-27T13:00:00.255Z,14.2
2023-04-27T13:04:58.005Z,14.9
2023-04-27T13:09:58.247Z,14.7
2023-04-27T13:14:58.203Z,14.7
2023-04-27T13:19:58.138Z,14.6
2023-04-27T13:24:57.958Z,14.3
2023-04-27T13:29:57.800Z,14.5
2023-04-27T13:34:57.919Z,14.6
2023-04-27T13:39:58.100Z,14.6
2023-04-27T13:44:58.060Z,14.4
2023-04-27T13:49:57.658Z,14.7
2023-04-27T13:54:57.815Z,15.1
2023-04-27T13:59:58.245Z,15
2023-04-27T14:04:57.649Z,15
2023-04-27T14:09:58.086Z,15.4
2023-04-27T14:14:58.546Z,14.8
2023-04-27T14:19:57.928Z,14.4
2023-04-27T14:24:57.980Z,14.3
2023-04-27T14:29:58.027Z,14.4
2023-04-27T14:34:57.802Z,14.8
2023-04-27T14:39:57.675Z,14.5
2023-04-27T14:44:57.706Z,14.3
2023-04-27T14:49:57.546Z,14.2
2023-04-27T14:54:57.757Z,14.1
2023-04-27T14:59:57.584Z,14.4
2023-04-27T15:04:57.819Z,14.3
2023-04-27T15:09:57.600Z,14.3
2023-04-27T15:14:57.772Z,14.3
2023-04-27T15:19:57.745Z,14.6
2023-04-27T15:24:57.811Z,14.9
2023-04-27T15:29:57.510Z,14.7
2023-04-27T15:34:57.725Z,14.9
2023-04-27T15:39:58.369Z,14.7
2023-04-27T15:44:57.823Z,14.4
2023-04-27T15:49:58.417Z,14
2023-04-27T15:54:57.481Z,14.1
2023-04-27T15:59:57.742Z,14.2
2023-04-27T16:04:57.775Z,14
2023-04-27T16:09:57.403Z,13.9
2023-04-27T16:14:57.552Z,13.8
2023-04-27T16:19:57.652Z,13.7
2023-04-27T16:24:57.821Z,13.5
2023-04-27T16:29:58.131Z,13.4
2023-04-27T16:34:57.438Z,13.4
2023-04-27T16:39:57.495Z,12.9
2023-04-27T16:44:57.727Z,13
2023-04-27T16:49:57.519Z,12.8
2023-04-27T16:54:57.523Z,12.7
2023-04-27T16:59:57.552Z,12.6
2023-04-27T17:04:57.526Z,12.6
2023-04-27T17:09:57.497Z,12.6
2023-04-27T17:14:57.377Z,12.7
2023-04-27T17:19:57.097Z,12.7
2023-04-27T17:24:57.564Z,12.7
2023-04-27T17:29:57.973Z,12.7
2023-04-27T17:34:57.453Z,12.4
2023-04-27T17:39:57.799Z,12.7
2023-04-27T17:44:57.409Z,12.3
2023-04-27T17:49:57.321Z,12.3
2023-04-27T17:54:57.334Z,12.2
2023-04-27T17:59:57.228Z,12.4
2023-04-27T18:04:57.491Z,12.1
2023-04-27T18:09:57.521Z,12.1
2023-04-27T18:14:57.367Z,11.9
2023-04-27T18:20:07.510Z,11.7
2023-04-27T18:24:57.007Z,11.7
2023-04-27T18:30:00.476Z,11.6
2023-04-27T18:35:00.849Z,11.5
2023-04-27T18:40:00.588Z,11.5
2023-04-27T18:45:01.096Z,11.7
2023-04-27T18:50:00.589Z,11.7
2023-04-27T18:55:00.345Z,11.5
2023-04-27T19:00:00.354Z,11.6
2023-04-27T19:05:11.427Z,11.7
2023-04-27T19:10:00.613Z,11.6
2023-04-27T19:15:00.483Z,11.5
2023-04-27T19:20:00.651Z,11.6
2023-04-27T19:25:00.494Z,11.5
2023-04-27T19:30:00.447Z,11.4
2023-04-27T19:35:00.287Z,11.3
2023-04-27T19:40:00.455Z,11.4
2023-04-27T19:45:00.393Z,11.3
2023-04-27T19:50:01.089Z,11
2023-04-27T19:55:00.408Z,11.1
2023-04-27T20:00:00.378Z,11.3
2023-04-27T20:05:00.623Z,10.9
2023-04-27T20:10:00.613Z,10.9
2023-04-27T20:15:00.278Z,10.9
2023-04-27T20:20:00.438Z,10.9
2023-04-27T20:25:00.339Z,10.8
2023-04-27T20:30:00.436Z,10.8
2023-04-27T20:35:02.040Z,11
2023-04-27T20:40:00.319Z,10.8
2023-04-27T20:45:00.326Z,10.9
2023-04-27T20:50:00.323Z,10.8
2023-04-27T20:55:00.488Z,10.7
2023-04-27T21:00:00.465Z,10.6
2023-04-27T21:05:00.507Z,10.8
2023-04-27T21:10:00.456Z,10.6
2023-04-27T21:15:00.532Z,10.5
2023-04-27T21:20:00.255Z,10.5
2023-04-27T21:25:00.566Z,10.5
2023-04-27T21:30:00.320Z,10.7
2023-04-27T21:35:00.211Z,10.5
2023-04-27T21:40:00.315Z,10.4
2023-04-27T21:45:00.110Z,10.4
2023-04-27T21:50:00.308Z,10.3
2023-04-27T21:55:00.169Z,10.3
2023-04-27T22:00:00.190Z,10.2
2023-04-27T22:04:59.975Z,10.3
2023-04-27T22:10:00.154Z,10.2
2023-04-27T22:15:00.143Z,10.2
2023-04-27T22:20:00.005Z,10.3
2023-04-27T22:25:00.373Z,10.2
2023-04-27T22:29:59.926Z,10.2
2023-04-27T22:34:59.791Z,10.2
2023-04-27T22:39:59.937Z,10.2
2023-04-27T22:45:00.056Z,10.2
2023-04-27T22:50:00.015Z,10.1
2023-04-27T22:54:59.728Z,10.2
2023-04-27T22:59:59.934Z,10.1
2023-04-27T23:04:59.771Z,9.9
2023-04-27T23:10:00.125Z,10
2023-04-27T23:15:00.192Z,10.1
2023-04-27T23:20:00.785Z,10
2023-04-27T23:24:59.673Z,9.9
2023-04-27T23:30:00.276Z,9.8
2023-04-27T23:34:59.716Z,9.8
2023-04-27T23:39:59.821Z,9.7
2023-04-27T23:45:00.124Z,9.7
2023-04-27T23:50:00.112Z,9.8
2023-04-27T23:55:00.020Z,9.7
2023-04-27T23:59:59.576Z,10
